Skip to Main Content
SEARCH:
Location Air RH Dwp Precip Type Wind Speed Wind Gust Direction Pavement Temperature Date/Time
Hatem Bridge US 40 E/B 76 76 69 None - - No Data Available 96 - 96 8/17/2017 11:12:00 AM
I-270 at I-370 81 76 73 None Calm Calm W 95 - 98 8/17/2017 11:10:00 AM
I-270 at MD-109 83 83 77 None Calm 4 mph W 96 - 96 8/17/2017 11:10:00 AM
I-495 at American Legion Bridge 85 76 77 None Calm 9 mph SE 103 - 104 8/17/2017 11:10:00 AM
I-68 at MD-219 76 73 66 None 7 mph 10 mph SW 98 - 99 8/17/2017 11:10:00 AM
I-68 at Savage Mt 76 78 69 None Calm 9 mph SE 102 - 99 8/17/2017 11:10:00 AM
I-68 at Sideling Hill 77 77 70 None Calm 6 mph SE 102 - 104 8/17/2017 11:10:00 AM
I-68 at WV Line 79 68 67 None 5 mph 10 mph SW 93 - 97 8/17/2017 11:10:00 AM
I-695 at I-83 81 76 73 None Calm 9 mph SE 100 - 97 8/17/2017 11:10:00 AM
I-70 at Fred-Wash Co. - - - No Data Available - - No Data Available -
I-70 at I-695 83 74 74 None Calm 6 mph SW 100 - 99 8/17/2017 11:10:00 AM
I-70 at I-81 81 71 71 None Calm 7 mph SW - 8/17/2017 11:10:00 AM
I-70 at MD-27 81 86 77 None Calm 4 mph SE 100 - 101 8/17/2017 11:10:00 AM
I-70 at MD-32 80 80 73 None Calm 5 mph E 104 - 96 8/17/2017 11:10:00 AM
I-83 at MD-137 81 81 75 None 4 mph 9 mph E 97 - 97 8/17/2017 11:10:00 AM
I-95 at I-695 NE 80 79 73 None Calm 6 mph E 100 - 98 8/17/2017 11:12:00 AM
I-95 at Patuxent River 86 73 76 None Calm 14 mph S 101 - 104 8/17/2017 11:10:00 AM
I-95 at Tydings Bridge 83 66 70 None Calm 8 mph NE 102 - 102 8/17/2017 11:10:00 AM
I-95/495 at I-295 86 72 76 None 4 mph 7 mph W 104 - 88 8/17/2017 11:10:00 AM
I-97 at MD-100 86 67 74 None Calm 8 mph E 102 - 105 8/17/2017 11:10:00 AM
I-97 at MD-32 84 70 73 None 8 mph 11 mph N 105 - 98 8/17/2017 11:10:00 AM
MD 20 at MD 21 82 76 74 None Calm 6 mph S 110 - 110 8/17/2017 11:10:00 AM
MD 231 at Patuxent River 80 84 75 None 8 mph 9 mph SE 101 - 102 8/17/2017 11:10:00 AM
MD 260 at Cox Rd 82 75 73 None Calm Calm N 109 - 109 8/17/2017 11:10:00 AM
MD-135 at Salt Dome 76 79 69 None Calm 5 mph N 99 - 99 8/17/2017 11:10:00 AM
MD-140 at MD-97 78 85 74 None Calm 5 mph S 91 - 91 8/17/2017 11:10:00 AM
MD-200 EB at Bonifant Rd 81 80 75 None Calm Calm N 100 - 95 8/17/2017 11:12:00 AM
MD-200 WB at Muncaster Mill Rd 82 75 73 None Calm 6 mph SE 96 - 98 8/17/2017 11:12:00 AM
MD-213 at Sassafras River 84 73 74 None Calm 4 mph E 109 - 109 8/17/2017 11:10:00 AM
MD-24 at Rock St Park 78 95 76 None Calm Calm SE 95 - 95 8/17/2017 11:10:00 AM
MD-30 at PA Line 75 99 75 None Calm 7 mph SE 90 - 90 8/17/2017 11:10:00 AM
MD-301 at MD-305 82 76 74 None 7 mph 11 mph SE 106 - 111 8/17/2017 11:10:00 AM
MD-33 at Knapps Narrows Drawbridge 81 72 72 None 4 mph 11 mph SW 112 - 112 8/17/2017 11:10:00 AM
MD-344 at MD-224 80 87 76 None Calm Calm NE - 8/17/2017 11:10:00 AM
MD-4 at Patuxent River 86 80 79 None - - No Data Available 97 - 97 8/17/2017 11:10:00 AM
MD-404 at Choptank River 83 75 75 None Calm 6 mph S 103 - 104 8/17/2017 11:10:00 AM
MD-43 at MD-150 82 82 76 None Calm 7 mph S 100 - 102 8/17/2017 11:10:00 AM
MD-51 at Oldtown Salt Dome 78 73 69 None Calm 4 mph S 107 - 107 8/17/2017 11:10:00 AM
MD-64 at MD-418 79 78 72 None Calm 5 mph N 109 - 110 8/17/2017 11:10:00 AM
US-1 at Baltimore / Harford Co. Line 81 74 72 None Calm 7 mph E 99 - 99 8/17/2017 11:10:00 AM
US-1 at Conowingo Dam 82 76 74 None Calm 4 mph SW 81 - 81 8/17/2017 11:10:00 AM
US-13 at US-113 74 97 74 None Calm 4 mph SE 80 - 83 8/17/2017 11:10:00 AM
US-13 at US-50 - - - No Data Available - - No Data Available -
US-15 at MD-140 76 86 72 None Calm 5 mph E 90 - 92 8/17/2017 11:10:00 AM
US-301 at MD-5 83 73 74 None 5 mph 9 mph S 104 - 109 8/17/2017 11:10:00 AM
US-301 at Potomac 84 77 76 None 6 mph 9 mph S 104 - 104 8/17/2017 11:10:00 AM
US-301 on HWN Bridge 79 82 73 None 12 mph 13 mph SE 98 - 98 8/17/2017 11:12:00 AM
US-340 at MD-180 78 77 71 None 6 mph 10 mph SE 101 - 104 8/17/2017 11:10:00 AM
US-50 at Choptank 83 80 77 None Calm Calm S 101 - 103 8/17/2017 11:10:00 AM
US-50 at I-95 84 74 75 None Calm 8 mph S 97 - 98 8/17/2017 11:10:00 AM
US-50 at MD-2 82 80 75 None Calm 5 mph E 105 - 88 8/17/2017 11:10:00 AM
US-50 at MD-331 80 82 74 None 6 mph 8 mph S 92 - 93 8/17/2017 11:10:00 AM
US-50 at OC Drawbridge 77 86 73 None 4 mph 8 mph S 87 - 87 8/17/2017 11:10:00 AM
US-50 at Table Rock Rd 74 82 68 None Calm 10 mph W 102 - 102 8/17/2017 11:10:00 AM
US-50 Kent Narrow Bridge 83 83 77 None 5 mph 8 mph SE 100 - 103 8/17/2017 11:10:00 AM
WPL Pier 31 - - - No Data Available - - No Data Available -
Location Air RH Dwp Precip Type Wind Speed Wind Gust Direction Pavement Temperature Date/Time